Time;durP1;ratioP1;P1;durP2;ratioP2;P2;SDS_P1;SDS_P2;PMS_P1;PMS_P2;Temp;Humidity;BMP_temperature;BMP_pressure;BME280_temperature;BME280_humidity;BME280_pressure;Samples;Min_cycle;Max_cycle;Signal;HPM_P1;HPM_P2
2023/08/31 00:00:35;;;;;;;4.15;1.58;;;12.00;99.90;;;;;;5013953;28;20120;-58
2023/08/31 00:03:01;;;;;;;4.18;1.50;;;12.00;99.90;;;;;;5006446;28;20046;-58
2023/08/31 00:05:28;;;;;;;4.43;1.70;;;12.10;99.90;;;;;;4994146;28;20045;-58
2023/08/31 00:07:57;;;;;;;3.75;1.73;;;12.10;99.90;;;;;;4994414;28;20046;-58
2023/08/31 00:10:23;;;;;;;4.35;1.55;;;12.10;99.90;;;;;;4994022;28;20078;-58
2023/08/31 00:12:49;;;;;;;2.30;1.73;;;12.10;99.90;;;;;;4994264;28;20089;-58
2023/08/31 00:15:15;;;;;;;5.70;2.08;;;12.10;99.90;;;;;;4994398;28;20042;-57
2023/08/31 00:17:42;;;;;;;3.00;1.52;;;12.00;99.90;;;;;;4994090;28;20052;-57
2023/08/31 00:20:11;;;;;;;4.90;1.85;;;12.00;99.90;;;;;;4994295;28;20038;-57
2023/08/31 00:22:37;;;;;;;5.20;2.08;;;12.00;99.90;;;;;;4994126;28;20046;-58
2023/08/31 00:25:05;;;;;;;4.05;1.45;;;12.00;99.90;;;;;;4994011;28;20389;-57
2023/08/31 00:27:31;;;;;;;3.17;1.70;;;12.00;99.90;;;;;;4993864;28;20046;-58
2023/08/31 00:29:57;;;;;;;5.10;1.90;;;12.00;99.90;;;;;;4993609;28;20057;-57
2023/08/31 00:32:23;;;;;;;4.88;1.95;;;12.00;99.90;;;;;;4994042;28;20066;-57
2023/08/31 00:34:50;;;;;;;7.60;2.60;;;12.00;99.90;;;;;;4993496;28;20069;-58
2023/08/31 00:37:16;;;;;;;5.03;2.28;;;12.00;99.90;;;;;;4992765;28;20030;-57
2023/08/31 00:39:42;;;;;;;7.55;2.60;;;12.00;99.90;;;;;;5013538;28;20091;-58
2023/08/31 00:42:08;;;;;;;3.95;2.30;;;12.00;99.90;;;;;;5013222;28;20370;-58
2023/08/31 00:44:34;;;;;;;3.45;2.22;;;12.00;99.90;;;;;;5013165;28;20116;-58
2023/08/31 00:47:02;;;;;;;5.25;2.20;;;12.00;99.90;;;;;;5013121;28;20053;-58
2023/08/31 00:49:28;;;;;;;7.28;2.08;;;12.00;99.90;;;;;;5012752;28;20050;-58
2023/08/31 00:51:56;;;;;;;4.50;2.38;;;12.00;99.90;;;;;;5007185;28;20038;-58
2023/08/31 00:54:22;;;;;;;8.70;2.40;;;12.00;99.90;;;;;;4993484;28;20042;-58
2023/08/31 00:56:56;;;;;;;9.10;2.80;;;12.00;99.90;;;;;;4993253;28;20046;-58
2023/08/31 00:59:21;;;;;;;4.40;2.33;;;11.90;99.90;;;;;;4993268;28;20170;-58
2023/08/31 01:02:07;;;;;;;3.13;2.42;;;12.00;99.90;;;;;;4993072;28;20150;-58
2023/08/31 01:04:50;;;;;;;6.38;2.92;;;12.00;99.90;;;;;;4993228;28;20049;-58
2023/08/31 01:07:40;;;;;;;4.75;2.40;;;11.90;99.90;;;;;;4992995;28;20119;-58
2023/08/31 01:10:24;;;;;;;5.85;2.60;;;11.90;99.90;;;;;;4988736;28;20045;-58
2023/08/31 01:12:55;;;;;;;6.00;2.40;;;11.90;99.90;;;;;;4981727;28;20109;-58
2023/08/31 01:15:21;;;;;;;4.40;2.55;;;11.80;99.90;;;;;;4981902;28;20113;-58
2023/08/31 01:17:50;;;;;;;6.00;3.00;;;11.80;99.90;;;;;;4993445;28;20042;-58
2023/08/31 01:20:35;;;;;;;4.75;2.08;;;11.80;99.90;;;;;;4993283;28;20048;-58
2023/08/31 01:23:22;;;;;;;9.10;2.70;;;11.70;99.90;;;;;;4992840;28;20489;-58
2023/08/31 01:25:48;;;;;;;4.95;2.67;;;11.70;99.90;;;;;;4992767;28;20485;-58
2023/08/31 01:28:14;;;;;;;5.32;2.40;;;11.60;99.90;;;;;;4990844;28;20050;-58
2023/08/31 01:30:41;;;;;;;4.90;2.47;;;11.60;99.90;;;;;;4992844;28;20058;-58
2023/08/31 01:33:07;;;;;;;11.05;2.60;;;11.60;99.90;;;;;;4992937;28;20077;-58
2023/08/31 01:35:43;;;;;;;4.03;1.95;;;11.50;99.90;;;;;;5003923;28;20073;-58
2023/08/31 01:38:10;;;;;;;6.43;2.20;;;11.50;99.90;;;;;;4998518;28;20034;-58
2023/08/31 01:40:43;;;;;;;3.55;2.05;;;11.50;99.90;;;;;;5012437;28;20033;-58
2023/08/31 01:43:11;;;;;;;6.13;2.40;;;11.50;99.90;;;;;;5012448;28;20042;-58
2023/08/31 01:45:37;;;;;;;5.00;2.10;;;11.40;99.90;;;;;;5006206;28;20101;-58
2023/08/31 01:48:04;;;;;;;8.13;3.22;;;11.40;99.90;;;;;;5004639;28;20049;-58
2023/08/31 01:50:30;;;;;;;4.75;1.92;;;11.40;99.90;;;;;;5012099;28;20358;-58
2023/08/31 01:52:56;;;;;;;5.30;2.00;;;11.40;99.90;;;;;;5012313;28;20096;-58
2023/08/31 01:55:24;;;;;;;2.75;1.42;;;11.40;99.90;;;;;;5011914;28;20062;-58
2023/08/31 01:57:50;;;;;;;2.72;1.67;;;11.30;99.90;;;;;;5012251;28;20087;-58
2023/08/31 02:00:20;;;;;;;3.70;1.80;;;11.30;99.90;;;;;;5012230;28;20042;-58
2023/08/31 02:02:45;;;;;;;5.18;1.67;;;11.30;99.90;;;;;;5009007;28;20121;-58
2023/08/31 02:05:11;;;;;;;2.58;1.42;;;11.20;99.90;;;;;;5009111;28;20125;-58
2023/08/31 02:07:37;;;;;;;3.28;1.45;;;11.20;99.90;;;;;;5015946;28;20069;-58
2023/08/31 02:10:06;;;;;;;9.05;1.52;;;11.20;99.90;;;;;;5016146;28;20047;-57
2023/08/31 02:12:32;;;;;;;3.35;1.80;;;11.20;99.90;;;;;;5015777;28;20037;-58
2023/08/31 02:14:59;;;;;;;4.93;1.80;;;11.20;99.90;;;;;;5015916;28;20038;-58
2023/08/31 02:17:25;;;;;;;1.35;1.10;;;11.10;99.90;;;;;;5015688;28;20038;-58
2023/08/31 02:19:51;;;;;;;3.78;1.23;;;11.20;99.90;;;;;;5015772;28;20052;-58
2023/08/31 02:22:17;;;;;;;4.03;1.33;;;11.30;99.90;;;;;;5015960;28;20029;-59
2023/08/31 02:24:42;;;;;;;3.17;1.33;;;11.20;99.90;;;;;;5015908;28;20499;-58
2023/08/31 02:27:08;;;;;;;4.78;1.92;;;11.20;99.90;;;;;;5015633;28;20504;-58
2023/08/31 02:29:33;;;;;;;5.10;1.40;;;11.20;99.90;;;;;;5015722;28;20034;-58
2023/08/31 02:31:59;;;;;;;3.67;1.45;;;11.20;99.90;;;;;;5016112;28;20127;-58
2023/08/31 02:34:25;;;;;;;5.25;1.10;;;11.20;99.90;;;;;;5015717;28;20052;-59
2023/08/31 02:36:51;;;;;;;6.30;1.50;;;11.20;99.90;;;;;;5008930;28;20042;-58
2023/08/31 02:39:16;;;;;;;6.28;1.58;;;11.20;99.90;;;;;;5008083;28;20046;-58
2023/08/31 02:41:42;;;;;;;4.53;1.55;;;11.20;99.90;;;;;;5015368;28;20100;-58
2023/08/31 02:44:07;;;;;;;4.53;1.40;;;11.20;99.90;;;;;;5015568;28;20111;-58
2023/08/31 02:46:33;;;;;;;6.22;1.60;;;11.20;99.90;;;;;;5015601;28;20034;-58
2023/08/31 02:48:59;;;;;;;2.55;1.20;;;11.20;99.90;;;;;;5015213;28;20104;-59
2023/08/31 02:51:24;;;;;;;1.90;1.30;;;11.20;99.90;;;;;;5015343;28;20038;-58
2023/08/31 02:53:50;;;;;;;2.90;1.27;;;11.20;99.90;;;;;;5015199;28;20422;-58
2023/08/31 02:56:16;;;;;;;5.93;1.20;;;11.20;99.90;;;;;;5015088;28;20099;-58
2023/08/31 02:58:41;;;;;;;5.97;1.40;;;11.20;99.90;;;;;;5015137;28;20042;-58
2023/08/31 03:01:12;;;;;;;5.95;1.33;;;11.20;99.90;;;;;;5015078;28;20159;-58
2023/08/31 03:03:38;;;;;;;2.05;1.13;;;11.20;99.90;;;;;;5015164;28;20034;-59
2023/08/31 03:06:08;;;;;;;2.83;1.10;;;11.20;99.90;;;;;;4996932;28;20545;-59
2023/08/31 03:08:35;;;;;;;5.72;1.15;;;11.10;99.90;;;;;;5006576;28;20057;-58
2023/08/31 03:11:01;;;;;;;4.50;1.00;;;11.10;99.90;;;;;;5014995;28;20038;-59
2023/08/31 03:13:27;;;;;;;4.50;1.20;;;11.10;99.90;;;;;;5014950;28;20053;-58
2023/08/31 03:15:52;;;;;;;3.75;1.27;;;11.10;99.90;;;;;;5014831;28;20038;-58
2023/08/31 03:18:18;;;;;;;3.95;1.02;;;11.10;99.90;;;;;;5014839;28;20034;-58
2023/08/31 03:20:44;;;;;;;4.78;0.93;;;11.00;99.90;;;;;;5013049;28;20042;-58
2023/08/31 03:23:11;;;;;;;5.40;1.30;;;11.00;99.90;;;;;;5014666;28;20498;-58
2023/08/31 03:25:36;;;;;;;1.40;0.90;;;11.00;99.90;;;;;;5014477;28;20042;-58
2023/08/31 03:28:03;;;;;;;3.30;1.02;;;11.00;99.90;;;;;;5014990;28;20041;-58
2023/08/31 03:30:28;;;;;;;3.15;0.80;;;11.00;99.90;;;;;;5014770;28;20042;-58
2023/08/31 03:32:54;;;;;;;3.97;1.05;;;11.00;99.90;;;;;;5014721;28;20033;-59
2023/08/31 03:35:21;;;;;;;2.38;0.90;;;11.00;99.90;;;;;;5014667;28;20040;-58
2023/08/31 03:37:49;;;;;;;1.75;1.15;;;11.00;99.90;;;;;;5000324;28;20815;-58
2023/08/31 03:40:15;;;;;;;1.45;1.15;;;11.00;99.90;;;;;;5014651;28;20065;-58
2023/08/31 03:42:41;;;;;;;5.05;1.10;;;11.10;99.90;;;;;;5014408;28;20563;-58
2023/08/31 03:45:07;;;;;;;3.22;1.30;;;11.10;99.90;;;;;;5014495;28;20045;-58
2023/08/31 03:47:33;;;;;;;3.50;1.10;;;11.20;99.90;;;;;;5014356;28;20389;-58
2023/08/31 03:49:59;;;;;;;2.88;1.00;;;11.10;99.90;;;;;;5014050;28;20073;-58
2023/08/31 03:52:24;;;;;;;2.47;0.90;;;11.10;99.90;;;;;;5014174;28;20045;-59
2023/08/31 03:54:52;;;;;;;4.78;0.95;;;11.10;99.90;;;;;;5013614;28;20124;-59
2023/08/31 03:57:18;;;;;;;5.72;1.40;;;11.20;99.90;;;;;;5014095;28;20104;-58
2023/08/31 03:59:43;;;;;;;5.40;1.00;;;11.10;99.90;;;;;;5014130;28;20129;-58
2023/08/31 04:02:09;;;;;;;3.55;1.23;;;11.10;99.90;;;;;;5014081;28;20475;-58
2023/08/31 04:04:35;;;;;;;2.92;1.17;;;11.10;99.90;;;;;;5013989;28;20045;-59
2023/08/31 04:07:00;;;;;;;3.50;1.13;;;11.10;99.90;;;;;;5013690;28;20392;-58
2023/08/31 04:09:26;;;;;;;1.95;0.80;;;11.10;99.90;;;;;;5014054;28;20447;-58
2023/08/31 04:11:52;;;;;;;2.25;0.75;;;11.10;99.90;;;;;;5013959;28;20034;-59
2023/08/31 04:14:18;;;;;;;2.83;0.90;;;11.10;99.90;;;;;;5013912;28;20041;-58
2023/08/31 04:16:45;;;;;;;2.33;1.00;;;11.10;99.90;;;;;;5013836;28;20400;-58
2023/08/31 04:19:10;;;;;;;2.05;1.00;;;11.20;99.90;;;;;;5013580;28;20034;-58
2023/08/31 04:21:37;;;;;;;2.03;1.00;;;11.20;99.90;;;;;;5013450;28;20551;-59
2023/08/31 04:24:05;;;;;;;3.28;1.02;;;11.20;99.90;;;;;;4995298;28;20042;-58
2023/08/31 04:26:31;;;;;;;3.35;1.08;;;11.20;99.90;;;;;;5013537;28;20488;-58
2023/08/31 04:28:57;;;;;;;4.50;1.02;;;11.20;99.90;;;;;;5013237;28;20045;-58
2023/08/31 04:31:22;;;;;;;3.92;1.23;;;11.20;99.90;;;;;;5013613;28;20030;-58
2023/08/31 04:33:53;;;;;;;2.47;0.93;;;11.20;99.90;;;;;;5013462;28;20049;-58
2023/08/31 04:36:19;;;;;;;2.85;0.90;;;11.10;99.90;;;;;;4983773;28;20088;-58
2023/08/31 04:38:45;;;;;;;4.53;1.20;;;11.20;99.90;;;;;;5001780;28;20113;-58
2023/08/31 04:41:11;;;;;;;5.57;2.03;;;11.20;99.90;;;;;;5007769;28;20600;-58
2023/08/31 04:43:36;;;;;;;2.72;1.30;;;11.20;99.90;;;;;;5013395;28;20045;-58
2023/08/31 04:46:03;;;;;;;3.15;1.20;;;11.20;99.90;;;;;;5006365;28;20046;-58
2023/08/31 04:48:29;;;;;;;1.83;1.30;;;11.10;99.90;;;;;;4998604;28;20855;-58
2023/08/31 04:50:57;;;;;;;2.95;1.30;;;11.20;99.90;;;;;;4993568;28;20126;-58
2023/08/31 04:53:22;;;;;;;2.28;1.13;;;11.20;99.90;;;;;;5009640;28;20858;-59
2023/08/31 04:55:48;;;;;;;7.03;1.83;;;11.20;99.90;;;;;;5007700;28;20050;-58
2023/08/31 04:58:14;;;;;;;3.17;1.42;;;11.20;99.90;;;;;;4998775;28;20081;-58
2023/08/31 05:00:39;;;;;;;5.15;1.63;;;11.20;99.90;;;;;;5007355;28;20042;-58
2023/08/31 05:03:06;;;;;;;8.70;1.85;;;11.20;99.90;;;;;;4997263;28;20121;-58
2023/08/31 05:27:37;;;;;;;9.80;2.00;;;11.30;99.90;;;;;;4996954;28;20032;-59
2023/08/31 05:30:03;;;;;;;4.82;1.80;;;11.50;99.90;;;;;;4978869;28;20396;-59
2023/08/31 05:32:29;;;;;;;5.40;1.80;;;11.50;99.90;;;;;;4962449;28;20042;-59
2023/08/31 05:34:55;;;;;;;8.75;2.20;;;11.60;99.90;;;;;;4939868;28;20034;-59
2023/08/31 05:37:21;;;;;;;4.15;1.73;;;11.70;99.90;;;;;;4968388;28;20074;-57
2023/08/31 05:39:51;;;;;;;8.70;2.13;;;11.80;99.90;;;;;;4959364;28;20093;-58
2023/08/31 05:42:17;;;;;;;4.10;2.28;;;11.90;99.90;;;;;;4979466;28;20050;-59
2023/08/31 05:44:44;;;;;;;3.00;1.67;;;11.90;99.90;;;;;;4959465;28;20066;-58
2023/08/31 05:47:10;;;;;;;4.63;1.90;;;12.00;99.90;;;;;;4958168;28;20392;-58
2023/08/31 05:49:36;;;;;;;3.88;1.70;;;12.10;99.90;;;;;;4960747;28;20065;-58
2023/08/31 05:52:02;;;;;;;4.47;1.60;;;12.20;99.90;;;;;;4943318;28;20617;-58
2023/08/31 05:54:28;;;;;;;3.72;1.77;;;12.30;99.90;;;;;;4958501;28;20554;-58
2023/08/31 05:56:53;;;;;;;4.35;1.50;;;12.30;99.90;;;;;;5007633;28;20038;-58
2023/08/31 05:59:19;;;;;;;4.38;1.67;;;12.50;99.90;;;;;;4975532;28;20046;-58
2023/08/31 06:01:45;;;;;;;5.63;1.58;;;12.50;99.90;;;;;;4983472;28;20500;-58
2023/08/31 06:04:11;;;;;;;6.30;2.22;;;12.60;99.90;;;;;;4999867;28;20269;-58
2023/08/31 06:06:36;;;;;;;7.05;1.63;;;12.70;99.90;;;;;;5007790;28;20142;-58
2023/08/31 06:09:02;;;;;;;4.15;1.60;;;12.90;99.90;;;;;;5002416;28;20042;-58
2023/08/31 06:11:28;;;;;;;3.95;1.45;;;13.00;99.90;;;;;;5010952;28;20042;-58
2023/08/31 06:13:53;;;;;;;3.80;1.50;;;13.20;99.90;;;;;;4996078;28;20038;-58
2023/08/31 06:16:19;;;;;;;6.75;1.80;;;13.30;99.90;;;;;;5012361;28;20029;-58
2023/08/31 06:18:45;;;;;;;5.93;1.63;;;13.40;99.90;;;;;;4992635;28;20042;-59
2023/08/31 06:21:10;;;;;;;4.43;1.63;;;13.40;99.90;;;;;;4991951;28;20089;-58
2023/08/31 06:23:36;;;;;;;4.35;1.67;;;13.40;99.90;;;;;;4991862;28;20065;-58
2023/08/31 06:26:02;;;;;;;8.13;2.13;;;13.40;99.90;;;;;;4992224;28;20038;-59
2023/08/31 06:28:28;;;;;;;4.50;1.90;;;13.40;99.90;;;;;;4991869;28;20048;-59
2023/08/31 06:30:54;;;;;;;5.25;1.50;;;13.40;99.90;;;;;;4991955;28;20042;-59
2023/08/31 06:33:19;;;;;;;8.55;1.30;;;13.60;99.90;;;;;;4991371;28;20493;-59
2023/08/31 06:35:48;;;;;;;7.50;2.33;;;13.80;99.90;;;;;;4992511;28;20497;-59
2023/08/31 06:38:14;;;;;;;5.40;1.33;;;14.00;99.90;;;;;;4995346;28;20583;-60
2023/08/31 06:40:42;;;;;;;6.55;1.50;;;14.30;99.90;;;;;;5012256;28;20042;-59
2023/08/31 06:43:07;;;;;;;7.15;1.75;;;14.50;99.90;;;;;;4995806;28;20045;-59
2023/08/31 06:45:34;;;;;;;3.65;1.45;;;14.60;99.90;;;;;;4992118;28;20039;-59
2023/08/31 06:47:59;;;;;;;6.30;1.50;;;14.90;99.90;;;;;;4977585;28;20552;-60
2023/08/31 06:50:25;;;;;;;4.75;1.00;;;15.00;99.90;;;;;;5008256;28;20045;-59
2023/08/31 06:52:50;;;;;;;8.38;1.50;;;15.10;99.90;;;;;;4995268;28;20366;-59
2023/08/31 06:55:16;;;;;;;3.33;0.93;;;15.20;99.90;;;;;;4995240;28;20565;-58
2023/08/31 06:57:42;;;;;;;4.50;1.20;;;15.40;99.90;;;;;;4994442;28;20129;-59
2023/08/31 07:00:09;;;;;;;4.40;1.10;;;15.70;99.90;;;;;;5003427;28;20077;-57
2023/08/31 07:02:37;;;;;;;4.30;1.63;;;16.10;99.90;;;;;;4995871;28;20053;-56
2023/08/31 07:05:03;;;;;;;3.90;1.00;;;16.40;99.90;;;;;;5006890;28;20073;-59
2023/08/31 07:07:29;;;;;;;8.45;1.50;;;16.80;99.90;;;;;;4995147;28;20049;-56
2023/08/31 07:09:55;;;;;;;6.07;0.90;;;17.00;99.90;;;;;;4993751;28;20396;-59
2023/08/31 07:12:21;;;;;;;3.92;0.80;;;17.30;99.90;;;;;;4995904;28;20034;-60
2023/08/31 07:14:46;;;;;;;1.35;0.70;;;17.50;99.90;;;;;;4995417;28;20039;-59
2023/08/31 07:17:12;;;;;;;3.33;0.90;;;17.60;99.90;;;;;;4995173;28;20085;-59
2023/08/31 07:19:38;;;;;;;4.03;0.90;;;17.60;99.90;;;;;;4995689;28;20481;-59
2023/08/31 07:22:06;;;;;;;5.30;0.70;;;17.90;99.90;;;;;;4989852;28;20057;-59
2023/08/31 07:24:31;;;;;;;5.75;0.88;;;18.20;99.90;;;;;;4995360;28;20069;-58
2023/08/31 07:26:57;;;;;;;3.63;0.80;;;18.50;99.90;;;;;;4995386;28;20405;-60
2023/08/31 07:29:23;;;;;;;2.78;0.65;;;18.70;99.90;;;;;;4993621;28;20042;-59
2023/08/31 07:31:48;;;;;;;6.07;1.27;;;18.90;99.90;;;;;;4992853;28;20031;-59
2023/08/31 07:34:14;;;;;;;7.95;0.70;;;19.00;99.90;;;;;;4995157;28;20039;-59
2023/08/31 07:36:40;;;;;;;6.90;0.70;;;19.20;99.90;;;;;;4991125;28;20038;-58
2023/08/31 07:39:05;;;;;;;2.88;1.33;;;19.30;99.90;;;;;;4995592;28;20038;-59
2023/08/31 07:41:31;;;;;;;6.03;1.08;;;19.60;99.90;;;;;;4986983;28;20042;-58
2023/08/31 07:43:57;;;;;;;2.42;0.60;;;19.70;99.90;;;;;;4991801;28;20046;-59
2023/08/31 07:46:22;;;;;;;1.77;0.68;;;20.00;99.90;;;;;;4993634;28;20034;-59
2023/08/31 07:48:50;;;;;;;3.30;0.70;;;20.20;99.90;;;;;;4993481;28;20042;-58
2023/08/31 07:51:16;;;;;;;2.72;0.63;;;20.20;99.90;;;;;;4994752;28;20034;-59
2023/08/31 07:53:42;;;;;;;2.28;0.55;;;20.40;99.90;;;;;;4981108;28;20053;-59
2023/08/31 07:56:07;;;;;;;3.80;0.77;;;20.60;99.90;;;;;;4994000;28;20089;-59
2023/08/31 07:58:33;;;;;;;4.05;1.48;;;20.50;99.90;;;;;;4993438;28;20070;-59
2023/08/31 08:00:59;;;;;;;3.80;1.02;;;20.60;99.90;;;;;;4976944;28;20049;-59
2023/08/31 08:03:25;;;;;;;4.35;1.05;;;20.70;99.90;;;;;;4994348;28;20044;-59
2023/08/31 08:05:51;;;;;;;2.97;1.08;;;20.60;99.90;;;;;;4994209;28;20113;-60
2023/08/31 08:08:17;;;;;;;3.38;0.60;;;20.80;99.90;;;;;;4994512;28;20121;-59
2023/08/31 08:10:43;;;;;;;2.85;0.55;;;20.80;99.90;;;;;;4993928;28;20038;-59
2023/08/31 08:13:09;;;;;;;5.72;1.02;;;20.80;99.90;;;;;;4993737;28;20519;-60
2023/08/31 08:15:35;;;;;;;1.75;0.40;;;21.10;99.90;;;;;;4994350;28;20091;-59
2023/08/31 08:18:01;;;;;;;3.78;0.93;;;21.10;99.90;;;;;;4994052;28;20065;-59
2023/08/31 08:20:28;;;;;;;2.97;0.75;;;21.20;99.90;;;;;;4994026;28;20362;-60
2023/08/31 08:22:54;;;;;;;2.38;0.63;;;21.20;99.90;;;;;;4993462;28;20104;-59
2023/08/31 08:25:20;;;;;;;2.20;0.60;;;21.20;99.90;;;;;;4994087;28;20046;-59
2023/08/31 08:27:47;;;;;;;4.32;0.70;;;21.30;99.90;;;;;;4985844;28;20046;-59
2023/08/31 08:30:13;;;;;;;5.18;0.65;;;21.30;99.90;;;;;;4993348;28;20043;-59
2023/08/31 08:32:39;;;;;;;3.13;0.63;;;21.30;99.90;;;;;;4994024;28;20041;-59
2023/08/31 08:35:05;;;;;;;3.80;0.80;;;21.30;99.90;;;;;;4993395;28;20030;-59
2023/08/31 08:37:34;;;;;;;2.60;0.77;;;21.40;99.90;;;;;;5005519;28;20112;-60
2023/08/31 08:40:01;;;;;;;5.22;0.70;;;21.20;99.90;;;;;;5013041;28;20048;-59
2023/08/31 08:42:30;;;;;;;2.25;0.65;;;21.30;99.90;;;;;;5013303;28;20117;-58
2023/08/31 08:44:57;;;;;;;4.22;0.80;;;21.40;99.90;;;;;;5012935;28;20103;-59
2023/08/31 08:47:24;;;;;;;1.92;0.93;;;21.40;99.90;;;;;;5013238;28;20136;-60
2023/08/31 08:49:50;;;;;;;1.95;0.50;;;21.50;99.90;;;;;;5007375;28;20113;-59
2023/08/31 08:52:16;;;;;;;3.35;0.50;;;21.50;99.90;;;;;;4993084;28;20486;-60
2023/08/31 08:54:41;;;;;;;3.95;0.60;;;21.40;99.90;;;;;;4975114;28;20066;-60
2023/08/31 08:57:07;;;;;;;1.85;0.60;;;21.60;99.90;;;;;;4993418;28;20073;-59
2023/08/31 08:59:33;;;;;;;2.85;0.82;;;21.50;99.90;;;;;;4993351;28;20121;-59
2023/08/31 09:01:59;;;;;;;2.47;0.50;;;21.60;99.90;;;;;;4992994;28;20116;-60
2023/08/31 09:04:24;;;;;;;5.78;0.95;;;21.50;99.90;;;;;;4993005;28;20046;-59
2023/08/31 09:06:53;;;;;;;4.95;1.45;;;21.10;99.90;;;;;;4992884;28;20049;-60
2023/08/31 09:09:19;;;;;;;;;;;20.10;99.90;;;;;;4993035;28;20034;-61
2023/08/31 09:11:45;;;;;;;1.05;0.40;;;19.60;99.90;;;;;;4993175;28;19980;-60
2023/08/31 09:14:16;;;;;;;1.25;0.40;;;19.40;99.90;;;;;;4992733;28;20041;-60
2023/08/31 09:16:44;;;;;;;1.05;0.40;;;19.00;99.90;;;;;;4992937;28;20117;-60
2023/08/31 09:19:24;;;;;;;2.55;0.40;;;18.90;99.90;;;;;;4992577;28;20042;-59
2023/08/31 09:21:50;;;;;;;;;;;19.00;99.90;;;;;;4975910;28;20054;-60
2023/08/31 09:24:19;;;;;;;2.17;0.82;;;19.20;99.90;;;;;;4992939;28;19925;-60
2023/08/31 09:26:47;;;;;;;2.30;0.60;;;19.40;99.90;;;;;;4992586;28;20057;-59
2023/08/31 09:29:13;;;;;;;5.05;0.77;;;19.70;99.90;;;;;;4992625;28;20042;-60
2023/08/31 09:31:46;;;;;;;4.43;0.80;;;19.90;99.90;;;;;;4992177;28;20057;-60
2023/08/31 09:34:15;;;;;;;2.20;0.85;;;20.20;99.90;;;;;;4992088;28;20046;-59
2023/08/31 09:36:42;;;;;;;3.38;0.90;;;20.30;99.90;;;;;;4991979;28;20093;-60
2023/08/31 09:39:09;;;;;;;4.20;0.80;;;20.30;99.90;;;;;;4998048;28;20042;-60
2023/08/31 09:41:35;;;;;;;2.05;0.52;;;20.60;99.90;;;;;;4997376;28;20042;-60
2023/08/31 09:44:18;;;;;;;4.47;0.60;;;20.50;99.90;;;;;;4992718;28;20038;-60
2023/08/31 09:46:45;;;;;;;2.38;0.68;;;20.40;99.90;;;;;;4992207;28;20378;-62
2023/08/31 09:49:16;;;;;;;2.92;0.50;;;20.70;99.90;;;;;;4981529;28;20392;-58
2023/08/31 09:51:49;;;;;;;2.55;0.77;;;20.60;99.90;;;;;;5002535;28;20045;-58
2023/08/31 09:54:17;;;;;;;2.63;0.98;;;20.60;99.90;;;;;;5000622;28;20038;-58
2023/08/31 09:56:44;;;;;;;2.58;0.80;;;20.50;99.90;;;;;;5004433;28;20045;-58
2023/08/31 09:59:11;;;;;;;4.63;0.90;;;20.30;99.90;;;;;;4991849;28;20547;-58
2023/08/31 10:01:37;;;;;;;7.75;1.10;;;20.30;99.90;;;;;;4992110;28;20092;-58
2023/08/31 10:04:03;;;;;;;2.33;0.73;;;20.30;99.90;;;;;;4992032;28;20034;-58
2023/08/31 10:06:31;;;;;;;3.15;0.80;;;20.20;99.90;;;;;;4974727;28;20069;-58
2023/08/31 10:08:57;;;;;;;1.53;0.50;;;19.90;99.90;;;;;;4989877;28;20550;-58
2023/08/31 10:11:25;;;;;;;1.90;0.50;;;19.60;99.90;;;;;;4991800;28;20038;-58
2023/08/31 10:13:53;;;;;;;5.43;1.00;;;19.20;99.90;;;;;;4991954;28;20044;-57
2023/08/31 10:16:21;;;;;;;3.58;0.70;;;18.80;99.90;;;;;;4991826;28;20113;-57
2023/08/31 10:18:47;;;;;;;2.53;0.77;;;18.60;99.90;;;;;;4992076;28;20071;-58
2023/08/31 10:21:16;;;;;;;2.13;0.70;;;18.20;99.90;;;;;;4991881;28;20069;-57
2023/08/31 10:23:46;;;;;;;3.25;0.85;;;18.10;99.90;;;;;;4995478;28;20049;-57
2023/08/31 10:26:12;;;;;;;4.38;1.00;;;18.10;99.90;;;;;;4995596;28;20497;-57
2023/08/31 10:28:42;;;;;;;5.53;1.08;;;18.30;99.90;;;;;;4995900;28;20044;-57
2023/08/31 10:31:10;;;;;;;4.13;0.77;;;18.50;99.90;;;;;;4995803;28;20044;-57
2023/08/31 10:33:46;;;;;;;4.38;0.85;;;18.80;99.90;;;;;;4995743;28;20073;-57
2023/08/31 10:36:19;;;;;;;3.25;0.90;;;19.10;99.90;;;;;;4996115;28;20081;-56
2023/08/31 10:38:58;;;;;;;3.97;0.95;;;19.30;99.90;;;;;;4991864;28;20428;-57
2023/08/31 10:41:24;;;;;;;3.53;0.75;;;19.50;99.90;;;;;;5015316;28;20034;-58
2023/08/31 10:43:50;;;;;;;1.67;0.80;;;19.90;99.90;;;;;;5015605;28;20034;-57
2023/08/31 10:46:28;;;;;;;2.13;0.98;;;19.90;99.90;;;;;;5015203;28;20056;-58
2023/08/31 10:48:58;;;;;;;1.77;0.87;;;20.00;99.90;;;;;;5015407;28;20112;-58
2023/08/31 10:51:29;;;;;;;3.97;0.73;;;19.80;99.90;;;;;;5014826;28;20099;-58
2023/08/31 10:54:25;;;;;;;6.28;0.85;;;19.60;99.90;;;;;;5015098;28;20588;-58
2023/08/31 10:57:00;;;;;;;3.03;1.08;;;19.30;99.90;;;;;;4897508;29;20206;-57
2023/08/31 10:59:40;;;;;;;4.13;1.05;;;19.10;99.90;;;;;;4897260;29;20594;-57
2023/08/31 11:02:06;;;;;;;3.10;0.90;;;18.80;99.90;;;;;;4897187;29;20056;-58
2023/08/31 11:04:55;;;;;;;2.90;0.85;;;18.70;99.90;;;;;;4897589;29;20531;-57
2023/08/31 11:07:26;;;;;;;5.20;0.70;;;18.50;99.90;;;;;;4897382;29;20057;-58
2023/08/31 11:09:52;;;;;;;3.85;0.90;;;18.40;99.90;;;;;;4905427;29;20044;-59
2023/08/31 11:12:22;;;;;;;3.60;0.68;;;18.70;99.90;;;;;;4914586;29;20068;-58
2023/08/31 11:14:48;;;;;;;1.42;0.68;;;18.80;99.90;;;;;;4915985;29;20534;-58
2023/08/31 11:17:14;;;;;;;3.58;0.85;;;18.90;99.90;;;;;;4915988;29;20040;-58
2023/08/31 11:19:41;;;;;;;1.88;0.93;;;19.10;99.90;;;;;;4915913;29;20048;-58
2023/08/31 11:22:09;;;;;;;2.83;0.60;;;19.30;99.90;;;;;;4915836;29;20055;-58
2023/08/31 11:24:35;;;;;;;2.25;0.68;;;19.20;99.90;;;;;;4915692;29;20051;-58
2023/08/31 11:27:04;;;;;;;2.88;1.02;;;19.00;99.90;;;;;;4915167;29;20499;-58
2023/08/31 11:29:29;;;;;;;2.97;0.75;;;18.90;99.90;;;;;;4915681;29;20056;-58
2023/08/31 11:32:02;;;;;;;2.67;0.80;;;18.80;99.90;;;;;;4915749;29;20044;-58
2023/08/31 11:34:27;;;;;;;3.78;1.00;;;18.80;99.90;;;;;;4985036;28;20027;-58
2023/08/31 11:36:53;;;;;;;3.25;0.95;;;18.70;99.90;;;;;;4994321;28;20122;-58
2023/08/31 11:39:19;;;;;;;4.28;0.90;;;18.60;99.90;;;;;;5003988;28;20042;-58
2023/08/31 11:41:45;;;;;;;3.40;0.98;;;18.60;99.90;;;;;;5013947;28;20042;-58
2023/08/31 11:44:17;;;;;;;3.95;1.08;;;18.70;99.90;;;;;;5013841;28;20117;-58
2023/08/31 11:46:46;;;;;;;4.97;1.00;;;18.80;99.90;;;;;;5013921;28;20041;-58
2023/08/31 11:49:12;;;;;;;2.72;1.08;;;19.20;99.90;;;;;;5014247;28;20388;-57
2023/08/31 11:51:39;;;;;;;3.55;1.38;;;19.50;99.90;;;;;;5014489;28;20038;-58
2023/08/31 11:54:05;;;;;;;3.67;1.15;;;19.60;99.90;;;;;;5014545;28;20053;-58
2023/08/31 11:56:47;;;;;;;3.42;0.90;;;19.30;99.90;;;;;;5012602;28;20057;-58
2023/08/31 11:59:17;;;;;;;3.83;1.25;;;19.00;99.90;;;;;;4994255;28;20088;-58
2023/08/31 12:01:45;;;;;;;3.90;1.00;;;18.90;99.90;;;;;;4994595;28;20047;-58
2023/08/31 12:04:13;;;;;;;4.60;1.40;;;18.60;99.90;;;;;;4991276;28;20038;-59
2023/08/31 12:06:40;;;;;;;9.13;1.52;;;18.80;99.90;;;;;;4994585;28;20053;-57
2023/08/31 12:09:09;;;;;;;2.70;1.00;;;18.90;99.90;;;;;;4994366;28;20042;-59
2023/08/31 12:11:35;;;;;;;3.85;1.10;;;19.20;99.90;;;;;;4994478;28;20077;-57
2023/08/31 12:14:04;;;;;;;5.88;2.40;;;19.50;99.90;;;;;;4994415;28;20047;-58
2023/08/31 12:16:35;;;;;;;;;;;19.80;99.90;;;;;;4994801;28;20054;-57
2023/08/31 12:19:02;;;;;;;3.80;2.50;;;19.90;99.90;;;;;;4994262;28;19918;-57
2023/08/31 12:21:28;;;;;;;2.27;0.90;;;19.90;99.90;;;;;;4993665;28;20049;-58
2023/08/31 12:23:54;;;;;;;3.95;1.75;;;19.70;99.90;;;;;;4994072;28;20042;-58
2023/08/31 12:26:20;;;;;;;5.25;2.40;;;19.60;99.90;;;;;;4993968;28;20430;-58
2023/08/31 12:28:46;;;;;;;4.22;2.03;;;19.70;99.90;;;;;;4994101;28;20070;-57
2023/08/31 12:31:11;;;;;;;4.05;2.03;;;19.60;99.90;;;;;;4986563;28;20129;-58
2023/08/31 12:33:37;;;;;;;5.13;1.55;;;19.50;99.90;;;;;;4994390;28;20042;-58
2023/08/31 12:36:03;;;;;;;6.90;2.83;;;19.40;99.90;;;;;;4993848;28;20050;-57
2023/08/31 12:38:29;;;;;;;4.20;1.42;;;19.30;99.90;;;;;;4982249;28;20038;-57
2023/08/31 12:40:55;;;;;;;4.00;1.45;;;19.10;99.90;;;;;;5013200;28;20041;-58
2023/08/31 12:43:20;;;;;;;2.30;0.88;;;19.00;99.90;;;;;;5013419;28;20504;-57
2023/08/31 12:45:46;;;;;;;1.83;0.68;;;19.00;99.90;;;;;;5009855;28;20081;-58
2023/08/31 12:48:12;;;;;;;6.13;0.98;;;19.20;99.90;;;;;;4993381;28;20538;-58
2023/08/31 12:50:37;;;;;;;5.85;1.13;;;19.40;99.90;;;;;;4976056;28;20048;-57
2023/08/31 12:53:03;;;;;;;3.17;0.85;;;19.60;99.90;;;;;;4993308;28;20046;-58
2023/08/31 12:55:30;;;;;;;1.98;0.80;;;19.80;99.90;;;;;;4993741;28;20409;-57
2023/08/31 12:57:56;;;;;;;2.28;0.93;;;19.90;99.90;;;;;;4992455;28;20065;-57
2023/08/31 13:00:22;;;;;;;3.40;1.10;;;19.90;99.90;;;;;;4993366;28;20400;-58
2023/08/31 13:02:50;;;;;;;5.15;0.80;;;19.60;99.90;;;;;;4989881;28;20046;-59
2023/08/31 13:05:16;;;;;;;3.47;1.30;;;19.60;99.90;;;;;;4992487;28;20084;-58
2023/08/31 13:07:41;;;;;;;3.70;1.23;;;19.50;99.90;;;;;;4989788;28;20082;-58
2023/08/31 13:10:07;;;;;;;7.20;1.35;;;19.50;99.90;;;;;;4992949;28;20045;-58